createdAt,value
2022-11-16T00:00:47.855Z,71.95
2022-11-16T00:03:14.189Z,70.52
2022-11-16T00:05:40.527Z,70.47
2022-11-16T00:08:06.861Z,72.38
2022-11-16T00:10:33.197Z,70.24
2022-11-16T00:12:59.538Z,70.44
2022-11-16T00:15:25.875Z,71.32
2022-11-16T00:17:52.207Z,69.94
2022-11-16T00:20:18.543Z,71.61
2022-11-16T00:22:44.881Z,72.30
2022-11-16T00:25:11.219Z,69.53
2022-11-16T00:27:37.560Z,71.36
2022-11-16T00:30:03.894Z,70.54
2022-11-16T00:32:30.221Z,69.44
2022-11-16T00:34:56.572Z,72.02
2022-11-16T00:37:22.985Z,70.65
2022-11-16T00:39:49.318Z,70.40
2022-11-16T00:42:15.657Z,68.10
2022-11-16T00:44:41.996Z,70.97
2022-11-16T00:47:08.327Z,68.10
2022-11-16T00:49:34.657Z,69.02
2022-11-16T00:52:01.001Z,68.53
2022-11-16T00:54:27.347Z,69.67
2022-11-16T00:56:53.695Z,68.90
2022-11-16T00:59:20.030Z,70.05
2022-11-16T01:01:46.371Z,68.67
2022-11-16T01:04:12.749Z,71.15
2022-11-16T01:06:39.087Z,69.84
2022-11-16T01:09:05.423Z,69.13
2022-11-16T01:11:31.751Z,68.04
2022-11-16T01:13:58.118Z,69.00
2022-11-16T01:16:24.468Z,68.42
2022-11-16T01:18:50.811Z,71.57
2022-11-16T01:21:17.145Z,68.83
2022-11-16T01:23:43.477Z,66.80
2022-11-16T01:26:09.812Z,68.01
2022-11-16T01:28:36.404Z,69.00
2022-11-16T01:31:03.015Z,68.76
2022-11-16T01:33:29.377Z,68.19
2022-11-16T01:35:55.703Z,69.92
2022-11-16T01:38:25.929Z,69.58
2022-11-16T01:40:54.852Z,68.44
2022-11-16T01:43:21.185Z,68.01
2022-11-16T01:45:47.525Z,67.85
2022-11-16T01:48:13.935Z,68.09
2022-11-16T01:50:40.316Z,68.55
2022-11-16T01:53:06.656Z,68.26
2022-11-16T01:55:32.992Z,68.62
2022-11-16T01:57:59.332Z,69.29
2022-11-16T02:00:25.673Z,68.31
2022-11-16T02:02:52.007Z,68.75
2022-11-16T02:05:18.340Z,68.23
2022-11-16T02:07:44.680Z,67.60
2022-11-16T02:10:11.042Z,67.92
2022-11-16T02:12:37.382Z,68.11
2022-11-16T02:15:03.720Z,68.16
2022-11-16T02:17:30.056Z,66.84
2022-11-16T02:19:56.386Z,67.86
2022-11-16T02:22:22.729Z,67.83
2022-11-16T02:24:49.060Z,68.36
2022-11-16T02:27:15.403Z,68.25
2022-11-16T02:29:41.734Z,68.85
2022-11-16T02:32:08.074Z,68.66
2022-11-16T02:34:34.415Z,68.00
2022-11-16T02:37:00.763Z,67.15
2022-11-16T02:39:27.101Z,67.54
2022-11-16T02:41:53.448Z,68.42
2022-11-16T02:44:19.785Z,67.19
2022-11-16T02:46:46.129Z,68.87
2022-11-16T02:49:12.474Z,67.04
2022-11-16T02:51:38.839Z,66.49
2022-11-16T02:54:05.172Z,67.27
2022-11-16T02:56:31.502Z,67.24
2022-11-16T02:58:57.834Z,66.90
2022-11-16T03:01:24.221Z,66.86
2022-11-16T03:03:50.594Z,66.13
2022-11-16T03:06:16.927Z,66.36
2022-11-16T03:08:43.273Z,65.66
2022-11-16T03:11:09.654Z,66.67
2022-11-16T03:13:35.997Z,66.54
2022-11-16T03:16:02.336Z,65.73
2022-11-16T03:18:28.710Z,66.74
2022-11-16T03:20:55.132Z,66.79
2022-11-16T03:23:21.599Z,66.94
2022-11-16T03:25:48.000Z,65.81
2022-11-16T03:28:14.357Z,66.61
2022-11-16T03:30:40.703Z,66.03
2022-11-16T03:33:07.019Z,66.27
2022-11-16T03:35:33.361Z,65.48
2022-11-16T03:37:59.687Z,66.24
2022-11-16T03:40:26.017Z,65.99
2022-11-16T03:42:52.349Z,66.49
2022-11-16T03:45:18.674Z,65.29
2022-11-16T03:47:45.026Z,64.14
2022-11-16T03:50:11.365Z,65.54
2022-11-16T03:52:37.696Z,66.65
2022-11-16T03:55:04.038Z,66.71
2022-11-16T03:57:30.384Z,65.27
2022-11-16T03:59:56.710Z,64.85
2022-11-16T04:02:23.031Z,64.44
2022-11-16T04:04:49.387Z,64.46
2022-11-16T04:07:15.794Z,65.18
2022-11-16T04:09:42.162Z,64.56
2022-11-16T04:12:08.494Z,65.46
2022-11-16T04:14:34.837Z,64.72
2022-11-16T04:17:01.169Z,64.76
2022-11-16T04:19:27.492Z,65.72
2022-11-16T04:21:53.818Z,64.14
2022-11-16T04:24:20.133Z,64.70
2022-11-16T04:26:46.477Z,65.84
2022-11-16T04:29:12.802Z,64.85
2022-11-16T04:31:39.134Z,65.32
2022-11-16T04:34:05.485Z,65.05
2022-11-16T04:36:31.823Z,64.12
2022-11-16T04:38:58.243Z,64.90
2022-11-16T04:41:24.571Z,64.46
2022-11-16T04:43:50.886Z,65.73
2022-11-16T04:46:17.215Z,65.36
2022-11-16T04:48:43.548Z,65.50
2022-11-16T04:51:09.888Z,65.72
2022-11-16T04:53:36.208Z,65.56
2022-11-16T04:56:02.561Z,64.36
2022-11-16T04:58:28.898Z,64.69
2022-11-16T05:00:55.306Z,64.89
2022-11-16T05:03:21.651Z,64.43
2022-11-16T05:05:47.977Z,65.22
2022-11-16T05:08:14.308Z,65.68
2022-11-16T05:10:40.645Z,65.73
2022-11-16T05:13:06.980Z,65.69
2022-11-16T05:15:33.313Z,65.24
2022-11-16T05:17:59.628Z,65.50
2022-11-16T05:20:25.966Z,65.34
2022-11-16T05:22:52.287Z,64.64
2022-11-16T05:25:18.638Z,64.78
2022-11-16T05:27:44.970Z,65.30
2022-11-16T05:30:11.304Z,64.54
2022-11-16T05:32:37.647Z,65.44
2022-11-16T05:35:03.970Z,64.53
2022-11-16T05:37:30.287Z,63.99
2022-11-16T05:39:56.626Z,63.98
2022-11-16T05:42:22.952Z,65.52
2022-11-16T05:44:49.298Z,64.83
2022-11-16T05:47:15.625Z,64.24
2022-11-16T05:49:41.970Z,63.65
2022-11-16T05:52:08.301Z,64.28
2022-11-16T05:54:34.628Z,64.73
2022-11-16T05:57:00.952Z,64.80
2022-11-16T05:59:27.281Z,64.30
2022-11-16T06:01:53.607Z,64.51
2022-11-16T06:04:24.617Z,63.49
2022-11-16T06:06:51.331Z,63.54
2022-11-16T06:09:17.683Z,64.77
2022-11-16T06:11:44.009Z,63.42
2022-11-16T06:14:10.335Z,63.72
2022-11-16T06:16:36.679Z,62.22
2022-11-16T06:19:03.019Z,62.36
2022-11-16T06:21:29.344Z,61.81
2022-11-16T06:23:55.663Z,62.30
2022-11-16T06:26:22.003Z,62.14
2022-11-16T06:28:48.369Z,61.29
2022-11-16T06:31:14.699Z,61.71
2022-11-16T06:33:41.048Z,59.45
2022-11-16T06:36:07.385Z,61.34
2022-11-16T06:38:33.994Z,61.71
2022-11-16T06:41:00.513Z,62.93
2022-11-16T06:43:26.874Z,60.88
2022-11-16T06:45:53.204Z,62.63
2022-11-16T06:48:19.534Z,63.33
2022-11-16T06:50:45.869Z,61.36
2022-11-16T06:53:12.204Z,60.43
2022-11-16T06:55:38.547Z,59.70
2022-11-16T06:58:04.877Z,60.15
2022-11-16T07:00:31.215Z,60.03
2022-11-16T07:02:57.585Z,60.40
2022-11-16T07:05:23.922Z,58.63
2022-11-16T07:07:50.273Z,58.84
2022-11-16T07:10:16.595Z,59.68
2022-11-16T07:12:42.944Z,60.74
2022-11-16T07:15:09.283Z,60.62
2022-11-16T07:17:35.623Z,61.51
2022-11-16T07:20:01.951Z,60.43
2022-11-16T07:22:28.266Z,62.33
2022-11-16T07:24:54.590Z,61.85
2022-11-16T07:27:20.923Z,62.56
2022-11-16T07:29:47.265Z,62.36
2022-11-16T07:32:13.585Z,61.48
2022-11-16T07:34:39.912Z,60.37
2022-11-16T07:37:06.239Z,61.43
2022-11-16T07:39:32.576Z,61.11
2022-11-16T07:41:58.940Z,60.93
2022-11-16T07:44:25.293Z,60.55
2022-11-16T07:46:51.611Z,61.71
2022-11-16T07:49:17.927Z,61.49
2022-11-16T07:51:44.277Z,62.48
2022-11-16T07:54:10.622Z,61.81
2022-11-16T07:56:36.964Z,62.87
2022-11-16T07:59:03.294Z,61.99
2022-11-16T08:01:29.687Z,61.07
2022-11-16T08:03:56.024Z,61.87
2022-11-16T08:06:22.360Z,62.77
2022-11-16T08:08:51.308Z,62.46
2022-11-16T08:11:20.066Z,62.43
2022-11-16T08:13:46.403Z,62.09
2022-11-16T08:16:12.721Z,62.72
2022-11-16T08:18:39.056Z,62.18
2022-11-16T08:21:05.392Z,61.72
2022-11-16T08:23:31.719Z,61.77
2022-11-16T08:25:58.047Z,62.37
2022-11-16T08:28:24.372Z,61.88
2022-11-16T08:30:53.706Z,61.61
2022-11-16T08:33:20.409Z,62.44
2022-11-16T08:35:46.757Z,61.84
2022-11-16T08:38:13.079Z,62.15
2022-11-16T08:43:23.466Z,61.97
2022-11-16T08:45:49.797Z,61.38
2022-11-16T08:48:16.151Z,61.49
2022-11-16T08:51:15.379Z,61.48
2022-11-16T08:53:28.806Z,61.26
2022-11-16T08:55:55.180Z,61.18
2022-11-16T08:58:21.511Z,61.00
2022-11-16T09:00:47.838Z,61.20
2022-11-16T09:03:14.162Z,61.80
2022-11-16T09:05:40.527Z,60.94
2022-11-16T09:08:06.856Z,60.84
2022-11-16T09:10:33.197Z,59.74
2022-11-16T09:12:59.528Z,59.15
2022-11-16T09:15:25.856Z,60.09
2022-11-16T09:17:52.188Z,59.53
2022-11-16T09:20:18.510Z,59.31
2022-11-16T09:22:44.851Z,59.28
2022-11-16T09:25:11.218Z,58.70
2022-11-16T09:27:37.783Z,58.87
2022-11-16T09:30:04.120Z,58.99
2022-11-16T09:32:30.458Z,58.48
2022-11-16T09:34:56.797Z,59.14
2022-11-16T09:37:23.132Z,58.24
2022-11-16T09:39:49.461Z,57.93
2022-11-16T09:42:15.803Z,58.72
2022-11-16T09:44:42.140Z,58.73
2022-11-16T09:47:08.471Z,60.05
2022-11-16T09:49:34.807Z,60.19
2022-11-16T09:52:01.147Z,59.23
2022-11-16T09:54:27.494Z,59.41
2022-11-16T09:56:53.820Z,60.10
2022-11-16T09:59:20.158Z,58.33
2022-11-16T10:01:46.501Z,59.05
2022-11-16T10:04:12.876Z,58.91
2022-11-16T10:06:39.217Z,59.14
2022-11-16T10:09:05.552Z,58.82
2022-11-16T10:11:31.885Z,58.44
2022-11-16T10:14:03.839Z,58.04
2022-11-16T10:16:30.588Z,58.56
2022-11-16T10:18:56.932Z,59.80
2022-11-16T10:21:23.275Z,59.17
2022-11-16T10:23:49.609Z,58.34
2022-11-16T10:26:15.939Z,59.16
2022-11-16T10:28:42.286Z,58.86
2022-11-16T10:31:08.733Z,59.23
2022-11-16T10:33:35.432Z,58.86
2022-11-16T10:36:02.139Z,59.01
2022-11-16T10:38:28.463Z,58.90
2022-11-16T10:40:54.790Z,60.11
2022-11-16T10:43:21.117Z,59.08
2022-11-16T10:45:47.456Z,58.84
2022-11-16T10:48:13.784Z,59.30
2022-11-16T10:50:40.130Z,58.80
2022-11-16T10:53:06.485Z,58.24
2022-11-16T10:55:32.834Z,57.08
2022-11-16T10:57:59.178Z,56.14
2022-11-16T11:00:25.531Z,57.94
2022-11-16T11:02:51.854Z,57.89
2022-11-16T11:05:18.176Z,56.91
2022-11-16T11:07:44.529Z,56.22
2022-11-16T11:10:10.960Z,55.32
2022-11-16T11:12:37.290Z,56.11
2022-11-16T11:15:03.616Z,56.28
2022-11-16T11:17:29.945Z,56.91
2022-11-16T11:19:56.275Z,56.96
2022-11-16T11:22:22.596Z,55.38
2022-11-16T11:24:48.917Z,56.40
2022-11-16T11:27:15.238Z,56.55
2022-11-16T11:29:41.578Z,57.12
2022-11-16T11:32:07.915Z,54.92
2022-11-16T11:34:34.252Z,54.65
2022-11-16T11:37:00.598Z,54.20
2022-11-16T11:39:27.003Z,54.85
2022-11-16T11:41:53.371Z,54.56
2022-11-16T11:44:19.712Z,55.06
2022-11-16T11:47:35.040Z,54.50
2022-11-16T11:49:33.805Z,53.69
2022-11-16T11:52:00.424Z,53.95
2022-11-16T11:54:26.747Z,54.41
2022-11-16T11:56:53.078Z,53.45
2022-11-16T11:59:19.414Z,54.20
2022-11-16T12:01:45.732Z,53.34
2022-11-16T12:04:12.058Z,52.55
2022-11-16T12:06:43.580Z,51.97
2022-11-16T12:09:10.388Z,53.32
2022-11-16T12:11:36.728Z,52.29
2022-11-16T12:14:03.066Z,53.24
2022-11-16T12:16:29.409Z,53.02
2022-11-16T12:18:55.733Z,52.57
2022-11-16T12:21:22.084Z,51.90
2022-11-16T12:23:48.413Z,52.46
2022-11-16T12:26:14.746Z,52.51
2022-11-16T12:28:41.110Z,50.69
2022-11-16T12:31:07.439Z,52.65
2022-11-16T12:33:34.053Z,51.08
2022-11-16T12:36:00.578Z,51.72
2022-11-16T12:38:26.918Z,52.04
2022-11-16T12:40:53.238Z,51.38
2022-11-16T12:43:19.566Z,52.19
2022-11-16T12:45:45.908Z,52.07
2022-11-16T12:48:12.238Z,51.53
2022-11-16T12:50:38.568Z,51.46
2022-11-16T12:53:04.893Z,50.99
2022-11-16T12:55:31.215Z,51.23
2022-11-16T12:57:57.559Z,51.07
2022-11-16T13:00:23.901Z,50.13
2022-11-16T13:02:50.226Z,50.83
2022-11-16T13:05:16.887Z,50.71
2022-11-16T13:07:43.272Z,49.93
2022-11-16T13:10:09.635Z,49.18
2022-11-16T13:12:35.956Z,48.17
2022-11-16T13:15:02.321Z,49.07
2022-11-16T13:17:28.676Z,49.16
2022-11-16T13:19:55.028Z,48.80
2022-11-16T13:22:21.362Z,49.20
2022-11-16T13:24:47.682Z,49.31
2022-11-16T13:27:14.030Z,50.05
2022-11-16T13:29:40.377Z,50.70
2022-11-16T13:32:06.710Z,48.31
2022-11-16T13:34:33.049Z,50.79
2022-11-16T13:36:59.383Z,49.83
2022-11-16T13:39:25.715Z,50.03
2022-11-16T13:41:52.057Z,49.47
2022-11-16T13:44:18.415Z,49.87
2022-11-16T13:46:59.966Z,50.15
2022-11-16T13:49:26.313Z,50.09
2022-11-16T13:51:52.646Z,49.23
2022-11-16T13:54:44.648Z,48.98
2022-11-16T13:57:05.279Z,49.71
2022-11-16T13:59:31.602Z,48.51
2022-11-16T14:01:57.948Z,50.20
2022-11-16T14:04:24.290Z,49.16
2022-11-16T14:06:50.631Z,48.37
2022-11-16T14:09:16.965Z,49.50
2022-11-16T14:11:43.283Z,48.96
2022-11-16T14:14:09.604Z,49.84
2022-11-16T14:16:35.933Z,48.21
2022-11-16T14:19:02.267Z,48.51
2022-11-16T14:21:28.607Z,48.88
2022-11-16T14:23:54.919Z,48.87
2022-11-16T14:26:21.252Z,48.87
2022-11-16T14:28:47.595Z,50.16
2022-11-16T14:31:13.908Z,49.24
2022-11-16T14:33:40.228Z,50.31
2022-11-16T14:36:06.563Z,49.33
2022-11-16T14:38:32.902Z,48.34
2022-11-16T14:41:00.037Z,48.67
2022-11-16T14:43:26.527Z,49.09
2022-11-16T14:45:52.859Z,49.95
2022-11-16T14:48:19.195Z,49.93
2022-11-16T14:50:45.533Z,49.93
2022-11-16T14:53:11.865Z,48.50
2022-11-16T14:55:38.191Z,49.23
2022-11-16T14:58:04.518Z,48.69
2022-11-16T15:00:30.849Z,48.49
2022-11-16T15:03:02.329Z,48.04
2022-11-16T15:05:29.220Z,47.90
2022-11-16T15:07:55.548Z,49.03
2022-11-16T15:10:21.874Z,48.81
2022-11-16T15:12:48.228Z,48.35
2022-11-16T15:15:14.560Z,48.82
2022-11-16T15:17:40.891Z,48.40
2022-11-16T15:20:07.244Z,49.04
2022-11-16T15:22:33.573Z,49.11
2022-11-16T15:24:59.891Z,48.64
2022-11-16T15:27:26.241Z,48.56
2022-11-16T15:29:52.591Z,48.36
2022-11-16T15:32:18.924Z,48.30
2022-11-16T15:34:45.247Z,48.09
2022-11-16T15:37:11.601Z,48.54
2022-11-16T15:39:37.926Z,48.55
2022-11-16T15:42:04.512Z,47.70
2022-11-16T15:44:30.908Z,47.85
2022-11-16T15:46:57.225Z,48.39
2022-11-16T15:49:23.555Z,49.26
2022-11-16T15:51:49.899Z,48.94
2022-11-16T15:54:16.215Z,48.03
2022-11-16T15:56:42.555Z,48.50
2022-11-16T15:59:08.880Z,47.87
2022-11-16T16:01:35.271Z,48.55
2022-11-16T16:04:01.630Z,48.62
2022-11-16T16:06:27.958Z,49.24
2022-11-16T16:08:54.300Z,49.82
2022-11-16T16:11:25.528Z,50.89
2022-11-16T16:13:53.176Z,51.55
2022-11-16T16:16:19.517Z,51.41
2022-11-16T16:18:45.839Z,52.38
2022-11-16T16:21:12.176Z,52.59
2022-11-16T16:23:38.498Z,53.09
2022-11-16T16:26:04.830Z,53.16
2022-11-16T16:28:31.180Z,54.13
2022-11-16T16:30:57.663Z,54.00
2022-11-16T16:33:24.314Z,53.01
2022-11-16T16:35:50.811Z,52.96
2022-11-16T16:38:17.227Z,53.89
2022-11-16T16:40:43.611Z,54.19
2022-11-16T16:43:09.947Z,54.06
2022-11-16T16:45:36.282Z,54.09
2022-11-16T16:48:02.642Z,54.10
2022-11-16T16:50:29.009Z,53.95
2022-11-16T16:52:55.375Z,54.24
2022-11-16T16:55:21.707Z,55.52
2022-11-16T16:57:48.163Z,53.40
2022-11-16T17:00:14.657Z,53.82
2022-11-16T17:02:41.186Z,54.37
2022-11-16T17:05:07.758Z,53.80
2022-11-16T17:07:34.491Z,55.37
2022-11-16T17:10:01.305Z,54.41
2022-11-16T17:12:27.923Z,56.30
2022-11-16T17:14:54.577Z,54.96
2022-11-16T17:17:21.204Z,55.64
2022-11-16T17:19:47.736Z,54.98
2022-11-16T17:22:14.251Z,54.97
2022-11-16T17:24:40.936Z,54.75
2022-11-16T17:27:07.769Z,54.84
2022-11-16T17:29:34.575Z,54.77
2022-11-16T17:32:01.324Z,55.36
2022-11-16T17:34:28.151Z,55.18
2022-11-16T17:36:54.904Z,54.89
2022-11-16T17:39:21.809Z,55.02
2022-11-16T17:41:48.710Z,55.69
2022-11-16T17:44:21.211Z,55.33
2022-11-16T17:46:48.576Z,55.33
2022-11-16T17:49:15.313Z,53.74
2022-11-16T17:51:41.907Z,55.07
2022-11-16T17:54:08.514Z,54.26
2022-11-16T17:56:35.479Z,54.99
2022-11-16T17:59:02.376Z,55.39
2022-11-16T18:01:29.030Z,53.91
2022-11-16T18:03:55.536Z,54.62
2022-11-16T18:06:22.023Z,55.20
2022-11-16T18:08:48.378Z,54.30
2022-11-16T18:11:14.716Z,54.48
2022-11-16T18:13:41.072Z,54.64
2022-11-16T18:16:07.415Z,54.26
2022-11-16T18:18:33.788Z,53.83
2022-11-16T18:21:00.149Z,54.89
2022-11-16T18:23:26.538Z,54.90
2022-11-16T18:25:52.857Z,54.89
2022-11-16T18:28:19.183Z,53.78
2022-11-16T18:30:45.516Z,52.96
2022-11-16T18:33:11.864Z,52.66
2022-11-16T18:35:38.194Z,53.92
2022-11-16T18:38:04.522Z,54.04
2022-11-16T18:40:31.672Z,53.33
2022-11-16T18:42:58.053Z,54.81
2022-11-16T18:45:24.401Z,53.69
2022-11-16T18:47:50.720Z,54.92
2022-11-16T18:50:22.668Z,55.15
2022-11-16T18:52:51.953Z,55.77
2022-11-16T18:55:18.279Z,55.98
2022-11-16T18:57:45.726Z,54.48
2022-11-16T19:00:12.092Z,55.72
2022-11-16T19:02:38.473Z,54.89
2022-11-16T19:05:04.858Z,56.23
2022-11-16T19:07:31.271Z,56.06
2022-11-16T19:09:57.693Z,56.03
2022-11-16T19:12:24.072Z,56.45
2022-11-16T19:14:50.489Z,56.32
2022-11-16T19:17:16.851Z,55.34
2022-11-16T19:19:43.223Z,55.30
2022-11-16T19:22:09.587Z,56.07
2022-11-16T19:24:35.965Z,55.48
2022-11-16T19:27:02.346Z,54.80
2022-11-16T19:29:28.727Z,55.53
2022-11-16T19:31:55.109Z,55.75
2022-11-16T19:34:21.510Z,53.43
2022-11-16T19:36:47.879Z,53.99
2022-11-16T19:39:14.252Z,54.07
2022-11-16T19:41:40.607Z,54.02
2022-11-16T19:44:07.099Z,53.45
2022-11-16T19:46:33.463Z,54.66
2022-11-16T19:48:59.832Z,53.56
2022-11-16T19:51:26.211Z,53.65
2022-11-16T19:53:52.612Z,52.73
2022-11-16T19:56:18.979Z,53.93
2022-11-16T19:58:45.365Z,54.46
2022-11-16T20:01:11.832Z,54.39
2022-11-16T20:03:38.680Z,53.11
2022-11-16T20:06:05.288Z,54.07
2022-11-16T20:08:31.651Z,53.61
2022-11-16T20:10:58.024Z,54.49
2022-11-16T20:13:24.414Z,52.81
2022-11-16T20:15:50.779Z,53.50
2022-11-16T20:18:17.204Z,53.75
2022-11-16T20:20:43.578Z,52.03
2022-11-16T20:23:09.944Z,52.47
2022-11-16T20:25:36.318Z,52.73
2022-11-16T20:28:02.719Z,53.21
2022-11-16T20:30:29.075Z,53.89
2022-11-16T20:32:55.447Z,53.40
2022-11-16T20:35:21.815Z,53.04
2022-11-16T20:37:48.179Z,53.06
2022-11-16T20:40:14.543Z,52.81
2022-11-16T20:42:40.918Z,52.14
2022-11-16T20:45:07.336Z,51.96
2022-11-16T20:47:33.716Z,52.99
2022-11-16T20:50:00.115Z,52.62
2022-11-16T20:52:26.596Z,52.70
2022-11-16T20:54:53.022Z,52.09
2022-11-16T20:57:19.609Z,52.54
2022-11-16T20:59:46.010Z,52.42
2022-11-16T21:02:12.449Z,52.83
2022-11-16T21:04:38.868Z,51.94
2022-11-16T21:07:05.303Z,52.50
2022-11-16T21:09:31.749Z,51.46
2022-11-16T21:11:58.120Z,51.67
2022-11-16T21:14:24.496Z,51.50
2022-11-16T21:16:50.930Z,51.30
2022-11-16T21:19:17.299Z,52.32
2022-11-16T21:21:43.669Z,52.15
2022-11-16T21:24:10.133Z,52.50
2022-11-16T21:26:36.674Z,53.08
2022-11-16T21:29:03.248Z,53.10
2022-11-16T21:31:29.626Z,53.44
2022-11-16T21:33:56.023Z,52.99
2022-11-16T21:36:22.506Z,52.70
2022-11-16T21:38:48.885Z,52.87
2022-11-16T21:41:15.391Z,52.60
2022-11-16T21:43:41.836Z,53.40
2022-11-16T21:46:08.211Z,52.75
2022-11-16T21:48:34.585Z,53.29
2022-11-16T21:51:01.114Z,52.80
2022-11-16T21:53:27.558Z,53.76
2022-11-16T21:55:54.319Z,53.54
2022-11-16T21:58:20.905Z,53.00
2022-11-16T22:00:47.269Z,53.23
2022-11-16T22:03:13.639Z,52.81
2022-11-16T22:05:40.275Z,52.84
2022-11-16T22:08:06.647Z,53.04
2022-11-16T22:10:33.145Z,52.38
2022-11-16T22:12:59.541Z,52.74
2022-11-16T22:15:26.185Z,53.15
2022-11-16T22:17:52.549Z,52.16
2022-11-16T22:20:18.955Z,52.23
2022-11-16T22:22:45.361Z,52.46
2022-11-16T22:25:12.032Z,52.59
2022-11-16T22:27:58.404Z,52.19
2022-11-16T22:30:24.983Z,52.47
2022-11-16T22:32:51.576Z,52.61
2022-11-16T22:35:17.959Z,52.67
2022-11-16T22:37:44.333Z,53.27
2022-11-16T22:40:16.433Z,53.28
2022-11-16T22:42:44.130Z,53.02
2022-11-16T22:45:10.530Z,52.73
2022-11-16T22:47:36.887Z,53.60
2022-11-16T22:50:03.260Z,52.80
2022-11-16T22:52:29.621Z,52.29
2022-11-16T22:54:55.995Z,52.63
2022-11-16T22:57:22.358Z,52.86
2022-11-16T22:59:48.761Z,52.70
2022-11-16T23:02:15.134Z,52.86
2022-11-16T23:04:41.507Z,53.83
2022-11-16T23:07:07.964Z,53.77
2022-11-16T23:09:34.390Z,53.93
2022-11-16T23:12:00.794Z,54.03
2022-11-16T23:14:27.171Z,54.72
2022-11-16T23:16:53.589Z,54.31
2022-11-16T23:19:20.020Z,53.88
2022-11-16T23:21:46.404Z,53.54
2022-11-16T23:24:12.772Z,53.29
2022-11-16T23:26:39.151Z,52.77
2022-11-16T23:29:05.549Z,53.55
2022-11-16T23:31:31.928Z,54.43
2022-11-16T23:33:58.304Z,54.33
2022-11-16T23:36:24.697Z,54.63
2022-11-16T23:38:51.074Z,54.31
2022-11-16T23:41:17.446Z,53.64
2022-11-16T23:43:43.808Z,53.64
2022-11-16T23:46:10.168Z,53.42
2022-11-16T23:48:36.552Z,53.55
2022-11-16T23:51:02.924Z,53.27
2022-11-16T23:53:29.296Z,52.71
2022-11-16T23:55:55.674Z,52.64
2022-11-16T23:58:22.066Z,52.75
